Главная страница
METAR-TAF:

METAR-TAF

Аэропорты :

Киль, Германия

широта: 54-23N, долгота: 010-10E, высота над уровнем моря: 31 м

Текущие метеонаблюдения

Эта сводка был подготовлена 3 часа и 1 минут назад, в 15:50 UTC
Ветер 6 Узел от восточный
Температура 10°C
Влажность 76%
Давление 1027 hPa
Видимость 10 км и более
Нет облачности ниже 1500 м, и нет кучево-дождевой облачности

METAR: EDHK 151550Z 10006KT CAVOK 10/06 Q1027

Время: 19:51 (18:51 UTC)

Прогноз

Эта сводка был подготовлена 4 часа и 51 минут назад, в 14:00 UTC
Прогноз действительный с 15-го 15 UTC до 15-го 18 UTC
Ветер 6 Узел от юго-юго-восточный
Видимость 10 км и более
Нет облачности ниже 1500 м, и нет кучево-дождевой облачности

TAF: EDHK 151400Z 1515/1518 15006KT CAVOK

Метеонаблюдения и прогнозы для более 4000 аэропортов (сводки METAR и TAF).

Имеющиеся станции представлены на карте желтыми и красными точками.

Чтобы увидеть название станции, наведите на нее мышь.

Затем щелкните, чтобы увидеть метеонаблюдения и метеопрогнозы.

Управление картой: чтобы увеличить масштаб, щелкните зеленые кнопки с черным крестиком; чтобы уменьшить масштаб, щелкните зеленую кнопку с тире; для просмотра соседних карт щелкайте зеленые стрелки.


METAR-TAF: